Time;durP1;ratioP1;P1;durP2;ratioP2;P2;SDS_P1;SDS_P2;PMS_P1;PMS_P2;Temp;Humidity;BMP_temperature;BMP_pressure;BME280_temperature;BME280_humidity;BME280_pressure;Samples;Min_cycle;Max_cycle;Signal;HPM_P1;HPM_P2
2021/03/11 00:00:13;;;;;;;;;;;;;;;0.65;100.00;100468.38;5070801;28;19924;-70
2021/03/11 00:02:40;;;;;;;;;;;;;;;0.66;100.00;100459.41;5071628;28;19924;-70
2021/03/11 00:05:07;;;;;;;;;;;;;;;0.70;100.00;100457.50;5070960;28;20365;-71
2021/03/11 00:07:33;;;;;;;;;;;;;;;0.69;100.00;100462.91;5053150;28;19925;-70
2021/03/11 00:09:59;;;;;;;;;;;;;;;0.68;100.00;100450.47;5071209;28;19969;-70
2021/03/11 00:12:25;;;;;;;;;;;;;;;0.68;100.00;100453.16;5070839;28;20632;-70
2021/03/11 00:14:51;;;;;;;;;;;;;;;0.68;100.00;100443.31;5071066;28;20449;-70
2021/03/11 00:17:17;;;;;;;;;;;;;;;0.68;100.00;100429.97;5070569;28;20043;-71
2021/03/11 00:19:44;;;;;;;;;;;;;;;0.70;100.00;100425.44;5035930;28;19924;-70
2021/03/11 00:22:10;;;;;;;;;;;;;;;0.71;100.00;100418.25;5053132;28;19977;-71
2021/03/11 00:24:36;;;;;;;;;;;;;;;0.70;100.00;100419.22;5071121;28;19928;-70
2021/03/11 00:27:02;;;;;;;;;;;;;;;0.69;100.00;100415.66;5070725;28;19931;-70
2021/03/11 00:29:28;;;;;;;;;;;;;;;0.70;100.00;100409.41;5070988;28;20248;-70
2021/03/11 00:31:54;;;;;;;;;;;;;;;0.71;100.00;100407.56;5052860;28;20367;-70
2021/03/11 00:34:20;;;;;;;;;;;;;;;0.72;100.00;100406.66;5070694;28;19932;-70
2021/03/11 00:36:47;;;;;;;;;;;;;;;0.72;100.00;100391.50;5070577;28;19924;-70
2021/03/11 00:39:13;;;;;;;;;;;;;;;0.74;100.00;100386.09;5070845;28;20294;-70
2021/03/11 00:41:39;;;;;;;;;;;;;;;0.77;100.00;100375.25;5053107;28;19924;-70
2021/03/11 00:44:06;;;;;;;;;;;;;;;0.78;100.00;100377.84;5052850;28;20041;-70
2021/03/11 00:46:31;;;;;;;;;;;;;;;0.79;100.00;100376.91;5070551;28;20305;-71
2021/03/11 00:48:58;;;;;;;;;;;;;;;0.79;100.00;100368.03;5052894;28;19967;-69
2021/03/11 00:51:24;;;;;;;;;;;;;;;0.81;100.00;100358.97;5052957;28;19947;-69
2021/03/11 00:53:50;;;;;;;;;;;;;;;0.81;100.00;100345.63;5052484;28;20374;-70
2021/03/11 00:56:17;;;;;;;;;;;;;;;0.80;100.00;100346.59;5055391;28;19924;-69
2021/03/11 00:58:42;;;;;;;;;;;;;;;0.82;100.00;100342.00;5074503;28;20023;-70
2021/03/11 01:01:08;;;;;;;;;;;;;;;0.85;100.00;100326.78;5074532;28;19951;-71
2021/03/11 01:03:41;;;;;;;;;;;;;;;0.85;100.00;100326.78;5056643;28;19924;-71
2021/03/11 01:06:07;;;;;;;;;;;;;;;0.86;100.00;100309.81;5056115;28;20385;-71
2021/03/11 01:08:38;;;;;;;;;;;;;;;0.84;100.00;100296.50;5056271;28;19931;-71
2021/03/11 01:11:05;;;;;;;;;;;;;;;0.87;100.00;100284.81;5074165;28;20314;-71
2021/03/11 01:13:31;;;;;;;;;;;;;;;0.87;100.00;100274.13;5074026;28;20416;-71
2021/03/11 01:15:56;;;;;;;;;;;;;;;0.91;100.00;100278.38;5056000;28;19932;-71
2021/03/11 01:18:23;;;;;;;;;;;;;;;0.93;100.00;100269.34;5073684;28;20382;-72
2021/03/11 01:20:48;;;;;;;;;;;;;;;0.94;100.00;100262.22;5074076;28;19928;-71
2021/03/11 01:23:14;;;;;;;;;;;;;;;0.96;100.00;100265.66;5074086;28;20433;-71
2021/03/11 01:25:40;;;;;;;;;;;;;;;0.95;100.00;100264.81;5072956;28;20043;-71
2021/03/11 01:28:07;;;;;;;;;;;;;;;1.01;100.00;100260.97;5073430;28;20027;-69
2021/03/11 01:30:33;;;;;;;;;;;;;;;1.04;100.00;100249.25;5073353;28;19928;-70
2021/03/11 01:32:58;;;;;;;;;;;;;;;1.10;100.00;100243.63;5072473;28;19978;-69
2021/03/11 01:35:25;;;;;;;;;;;;;;;1.13;100.00;100235.44;5073799;28;19935;-69
2021/03/11 01:37:50;;;;;;;;;;;;;;;1.14;100.00;100238.03;5073515;28;19924;-70
2021/03/11 01:40:17;;;;;;;;;;;;;;;1.16;100.00;100230.81;5073456;28;20311;-69
2021/03/11 01:42:43;;;;;;;;;;;;;;;1.17;100.00;100232.50;5073767;28;19962;-69
2021/03/11 01:45:10;;;;;;;;;;;;;;;1.20;100.00;100217.28;5072110;28;19982;-69
2021/03/11 01:47:36;;;;;;;;;;;;;;;1.19;100.00;100205.72;5073111;28;19925;-70
2021/03/11 01:50:02;;;;;;;;;;;;;;;1.20;100.00;100206.56;5072085;28;19966;-69
2021/03/11 01:52:28;;;;;;;;;;;;;;;1.20;100.00;100195.88;5073693;28;20384;-69
2021/03/11 01:54:54;;;;;;;;;;;;;;;1.20;100.00;100198.56;5073381;28;19924;-69
2021/03/11 01:57:20;;;;;;;;;;;;;;;1.21;100.00;100187.78;5073083;28;19936;-69
2021/03/11 01:59:47;;;;;;;;;;;;;;;1.23;100.00;100182.34;5073111;28;19931;-70
2021/03/11 02:02:14;;;;;;;;;;;;;;;1.25;100.00;100177.81;5073299;28;19925;-69
2021/03/11 02:04:40;;;;;;;;;;;;;;;1.26;100.00;100184.88;5073183;28;19924;-69
2021/03/11 02:07:06;;;;;;;;;;;;;;;1.26;100.00;100160.81;5072366;28;20374;-69
2021/03/11 02:09:32;;;;;;;;;;;;;;;1.28;100.00;100166.94;5073017;28;19978;-69
2021/03/11 02:12:02;;;;;;;;;;;;;;;1.29;100.00;100158.81;5073241;28;19924;-69
2021/03/11 02:14:32;;;;;;;;;;;;;;;1.30;100.00;100149.88;5073241;28;19931;-69
2021/03/11 02:17:01;;;;;;;;;;;;;;;1.32;100.00;100147.09;5072845;28;19931;-70
2021/03/11 02:19:37;;;;;;;;;;;;;;;1.34;100.00;100146.09;5072790;28;20366;-69
2021/03/11 02:22:07;;;;;;;;;;;;;;;1.36;100.00;100145.16;5072988;28;19963;-69
2021/03/11 02:24:43;;;;;;;;;;;;;;;1.38;100.00;100135.22;5072607;28;20408;-69
2021/03/11 02:27:22;;;;;;;;;;;;;;;1.39;100.00;100120.91;5072489;28;19928;-69
2021/03/11 02:29:49;;;;;;;;;;;;;;;1.38;100.00;100104.00;5072758;28;19970;-70
2021/03/11 02:32:16;;;;;;;;;;;;;;;1.38;100.00;100104.00;5072615;28;19950;-69
2021/03/11 02:34:45;;;;;;;;;;;;;;;1.41;100.00;100108.34;5072953;28;19947;-69
2021/03/11 02:37:12;;;;;;;;;;;;;;;1.41;100.00;100097.63;5072311;28;20039;-69
2021/03/11 02:39:39;;;;;;;;;;;;;;;1.44;100.00;100087.66;5072295;28;19924;-69
2021/03/11 02:42:07;;;;;;;;;;;;;;;1.47;100.00;100087.47;5072224;28;19994;-70
2021/03/11 02:44:34;;;;;;;;;;;;;;;1.53;100.00;100093.44;5072482;28;20001;-70
2021/03/11 02:47:00;;;;;;;;;;;;;;;1.54;100.00;100084.44;5071702;28;19968;-69
2021/03/11 02:49:26;;;;;;;;;;;;;;;1.56;100.00;100088.75;5072179;28;20366;-70
2021/03/11 02:51:53;;;;;;;;;;;;;;;1.58;100.00;100070.84;5072395;28;19982;-69
2021/03/11 02:54:19;;;;;;;;;;;;;;;1.63;100.00;100068.78;5072129;28;19925;-69
2021/03/11 02:56:47;;;;;;;;;;;;;;;1.69;100.00;100059.53;5071931;28;20032;-70
2021/03/11 02:59:13;;;;;;;;;;;;;;;1.69;100.00;100046.16;5071683;28;19925;-69
2021/03/11 03:01:40;;;;;;;;;;;;;;;1.74;100.00;100061.94;5072051;28;19982;-70
2021/03/11 03:04:09;;;;;;;;;;;;;;;1.77;100.00;100054.63;5072049;28;19925;-70
2021/03/11 03:06:36;;;;;;;;;;;;;;;1.82;100.00;100051.72;5071681;28;19928;-69
2021/03/11 03:09:03;;;;;;;;;;;;;;;1.85;100.00;100046.19;5071841;28;20309;-70
2021/03/11 03:11:29;;;;;;;;;;;;;;;1.91;100.00;100044.97;5071942;28;20258;-69
2021/03/11 03:13:55;;;;;;;;;;;;;;;1.99;100.00;100045.38;5054005;28;20171;-70
2021/03/11 03:16:21;;;;;;;;;;;;;;;2.01;100.00;100043.50;5071412;28;19944;-70
2021/03/11 03:18:48;;;;;;;;;;;;;;;2.03;100.00;100038.91;5070747;28;19925;-69
2021/03/11 03:21:15;;;;;;;;;;;;;;;2.01;100.00;100024.75;5071760;28;20318;-70
2021/03/11 03:23:42;;;;;;;;;;;;;;;2.00;100.00;100005.16;5071517;28;19924;-69
2021/03/11 03:26:09;;;;;;;;;;;;;;;2.01;100.00;100009.56;5071406;28;19971;-69
2021/03/11 03:28:34;;;;;;;;;;;;;;;2.04;100.00;100003.16;5071530;28;19924;-69
2021/03/11 03:31:00;;;;;;;;;;;;;;;2.04;100.00;99996.97;5071529;28;20034;-70
2021/03/11 03:33:26;;;;;;;;;;;;;;;1.98;100.00;99990.16;5071743;28;19925;-69
2021/03/11 03:35:52;;;;;;;;;;;;;;;1.92;100.00;99990.47;5070741;28;19932;-69
2021/03/11 03:38:19;;;;;;;;;;;;;;;1.88;100.00;99991.63;5071540;28;19963;-70
2021/03/11 03:40:45;;;;;;;;;;;;;;;1.82;100.00;99977.63;5071477;28;19932;-70
2021/03/11 03:43:12;;;;;;;;;;;;;;;1.78;100.00;99980.56;5071448;28;20006;-70
2021/03/11 03:45:40;;;;;;;;;;;;;;;1.72;100.00;99970.22;5071053;28;20000;-70
2021/03/11 03:48:07;;;;;;;;;;;;;;;1.72;100.00;99957.69;5071322;28;20035;-69
2021/03/11 03:50:33;;;;;;;;;;;;;;;1.68;100.00;99966.84;5053444;28;20023;-69
2021/03/11 03:53:02;;;;;;;;;;;;;;;1.62;100.00;99954.66;5071393;28;19935;-69
2021/03/11 03:55:29;;;;;;;;;;;;;;;1.63;100.00;99951.06;5070943;28;19924;-70
2021/03/11 03:57:56;;;;;;;;;;;;;;;1.64;100.00;99941.19;5071235;28;19924;-70
2021/03/11 04:00:22;;;;;;;;;;;;;;;1.64;100.00;99943.88;5071144;28;19928;-70
2021/03/11 04:02:52;;;;;;;;;;;;;;;1.62;100.00;99935.09;5071196;28;20010;-70
2021/03/11 04:05:18;;;;;;;;;;;;;;;1.61;100.00;99926.19;5070518;28;20002;-70
2021/03/11 04:07:45;;;;;;;;;;;;;;;1.58;100.00;99909.47;5071030;28;19924;-70
2021/03/11 04:10:12;;;;;;;;;;;;;;;1.57;100.00;99889.00;5071157;28;20033;-70
2021/03/11 04:12:39;;;;;;;;;;;;;;;1.57;100.00;99870.28;5070952;28;19947;-70
2021/03/11 04:15:06;;;;;;;;;;;;;;;1.53;100.00;99877.59;5070941;28;20220;-70
2021/03/11 04:17:32;;;;;;;;;;;;;;;1.59;100.00;99865.69;5052870;28;19924;-70
2021/03/11 04:20:00;;;;;;;;;;;;;;;1.60;100.00;99860.25;5070905;28;20286;-70
2021/03/11 04:22:26;;;;;;;;;;;;;;;1.56;100.00;99849.81;5071099;28;19924;-70
2021/03/11 04:24:52;;;;;;;;;;;;;;;1.56;100.00;99847.16;5070766;28;19928;-70
2021/03/11 04:27:18;;;;;;;;;;;;;;;1.61;100.00;99850.41;5052709;28;20314;-70
2021/03/11 04:29:45;;;;;;;;;;;;;;;1.62;100.00;99838.78;5073376;28;20441;-70
2021/03/11 04:32:11;;;;;;;;;;;;;;;1.62;100.00;99838.78;5074931;28;20378;-70
2021/03/11 04:34:37;;;;;;;;;;;;;;;1.59;100.00;99828.22;5074455;28;19947;-70
2021/03/11 04:37:03;;;;;;;;;;;;;;;1.57;100.00;99819.44;5074797;28;19924;-71
2021/03/11 04:39:30;;;;;;;;;;;;;;;1.54;100.00;99819.59;5074857;28;19955;-71
2021/03/11 04:41:56;;;;;;;;;;;;;;;1.52;100.00;99805.47;5074722;28;19924;-71
2021/03/11 04:44:23;;;;;;;;;;;;;;;1.54;100.00;99795.53;5074563;28;19924;-71
2021/03/11 04:46:51;;;;;;;;;;;;;;;1.52;100.00;99800.97;5074198;28;19924;-71
2021/03/11 04:49:18;;;;;;;;;;;;;;;1.48;100.00;99786.94;5056616;28;19978;-71
2021/03/11 04:51:44;;;;;;;;;;;;;;;1.48;100.00;99783.38;5074706;28;19925;-71
2021/03/11 04:54:10;;;;;;;;;;;;;;;1.53;100.00;99781.31;5074286;28;19935;-71
2021/03/11 04:56:36;;;;;;;;;;;;;;;1.56;100.00;99775.75;5074191;28;19947;-71
2021/03/11 04:59:02;;;;;;;;;;;;;;;1.56;100.00;99772.25;5074404;28;19947;-71
2021/03/11 05:01:31;;;;;;;;;;;;;;;1.55;100.00;99757.13;5074476;28;19963;-71
2021/03/11 05:03:58;;;;;;;;;;;;;;;1.56;100.00;99764.22;5074391;28;19978;-71
2021/03/11 05:06:23;;;;;;;;;;;;;;;1.56;100.00;99748.16;5073718;28;19940;-71
2021/03/11 05:08:49;;;;;;;;;;;;;;;1.52;100.00;99749.28;5074625;28;19928;-72
2021/03/11 05:11:15;;;;;;;;;;;;;;;1.53;100.00;99741.19;5074148;28;19956;-71
2021/03/11 05:13:41;;;;;;;;;;;;;;;1.54;100.00;99724.19;5074134;28;20344;-72
2021/03/11 05:16:07;;;;;;;;;;;;;;;1.53;100.00;99703.72;5073620;28;19940;-71
2021/03/11 05:18:33;;;;;;;;;;;;;;;1.56;100.00;99695.50;5074171;28;20389;-71
2021/03/11 05:21:00;;;;;;;;;;;;;;;1.58;100.00;99696.28;5073938;28;19931;-71
2021/03/11 05:23:26;;;;;;;;;;;;;;;1.57;100.00;99683.84;5073694;28;20027;-71
2021/03/11 05:25:53;;;;;;;;;;;;;;;1.66;100.00;99685.13;5074449;28;19924;-73
2021/03/11 05:28:19;;;;;;;;;;;;;;;1.68;100.00;99672.50;5074287;28;19932;-73
2021/03/11 05:30:45;;;;;;;;;;;;;;;1.68;100.00;99675.19;5073683;28;20115;-73
2021/03/11 05:33:11;;;;;;;;;;;;;;;1.68;100.00;99677.84;5082294;28;19924;-73
2021/03/11 05:35:37;;;;;;;;;;;;;;;1.67;100.00;99652.94;5077793;28;19932;-73
2021/03/11 05:38:05;;;;;;;64.88;30.38;;;;;;;1.71;100.00;99658.06;5074522;28;19954;-73
2021/03/11 05:40:31;;;;;;;112.82;62.35;;;;;;;1.78;100.00;99646.91;5071260;28;20444;-73
2021/03/11 05:42:59;;;;;;;102.93;59.92;;;;;;;1.88;100.00;99659.72;5087622;28;20415;-73
2021/03/11 05:45:26;;;;;;;100.00;56.90;;;;;;;1.93;100.00;99649.59;5075310;28;20435;-73
2021/03/11 05:47:53;;;;;;;92.30;51.90;;;;;;;1.95;100.00;99632.47;5071662;28;20419;-73
2021/03/11 05:50:19;;;;;;;;;;;;;;;1.94;100.00;99622.72;5086238;28;20426;-73
2021/03/11 05:52:46;;;;;;;;;;;;;;;1.83;100.00;99635.91;5091691;28;19932;-74
2021/03/11 05:55:13;;;;;;;;;;;;;;;1.81;100.00;99619.94;5073004;28;19978;-73
2021/03/11 05:57:39;;;;;;;;;;;;;;;1.82;100.00;99615.47;5073520;28;19924;-73
2021/03/11 06:00:06;;;;;;;;;;;;;;;1.86;100.00;99600.06;5081968;28;20031;-73
2021/03/11 06:02:32;;;;;;;;;;;;;;;1.87;100.00;99609.81;5073090;28;20229;-74
2021/03/11 06:04:58;;;;;;;;;;;;;;;1.86;100.00;99603.63;5091827;28;20412;-74
2021/03/11 06:07:24;;;;;;;;;;;;;;;1.86;100.00;99584.00;5093376;28;19964;-74
2021/03/11 06:09:50;;;;;;;;;;;;;;;1.87;100.00;99591.09;5076281;28;20448;-74
2021/03/11 06:12:18;;;;;;;95.53;46.13;;;;;;;1.89;100.00;99589.19;5072319;28;20518;-73
2021/03/11 06:14:47;;;;;;;;;;;;;;;1.98;100.00;99577.91;5087740;28;20417;-73
2021/03/11 06:17:13;;;;;;;;;;;;;;;2.03;100.00;99569.56;5078331;28;19920;-74
2021/03/11 06:19:39;;;;;;;93.65;48.55;;;;;;;2.15;100.00;99577.66;5074598;28;20539;-75
2021/03/11 06:22:05;;;;;;;;;;;;;;;2.23;100.00;99562.91;5076345;28;20335;-74
2021/03/11 06:24:31;;;;;;;;;;;;;;;2.22;100.00;99548.69;5093011;28;20019;-74
2021/03/11 06:26:57;;;;;;;;;;;;;;;2.23;100.00;99545.03;5081965;28;20390;-73
2021/03/11 06:29:35;;;;;;;;;;;;;;;2.21;100.00;99535.38;5074756;28;19925;-74
2021/03/11 06:32:01;;;;;;;91.22;45.53;;;;;;;2.23;100.00;99533.47;5076767;28;20429;-74
2021/03/11 06:34:34;;;;;;;103.13;56.42;;;;;;;2.34;100.00;99541.66;5070938;28;20419;-74
2021/03/11 06:37:00;;;;;;;95.78;56.10;;;;;;;2.39;100.00;99536.81;5068893;28;20898;-73
2021/03/11 06:39:28;;;;;;;92.00;53.90;;;;;;;2.42;100.00;99539.31;5069514;28;20412;-74
2021/03/11 06:41:54;;;;;;;;;;;;;;;2.28;100.00;99509.91;5071737;28;20485;-73
2021/03/11 06:44:32;;;;;;;;;;;;;;;2.25;100.00;99507.44;5072420;28;19940;-74
2021/03/11 06:47:00;;;;;;;;;;;;;;;2.23;100.00;99464.72;5060335;28;19928;-73
2021/03/11 06:49:26;;;;;;;;;;;;;;;2.26;100.00;99503.78;5066012;28;20424;-73
2021/03/11 06:52:07;;;;;;;;;;;;;;;2.25;100.00;99500.25;5054124;28;20513;-72
2021/03/11 06:54:47;;;;;;;;;;;;;;;2.25;100.00;99500.25;5072302;28;19929;-73
2021/03/11 06:57:23;;;;;;;;;;;;;;;2.25;100.00;99489.56;5053115;28;20419;-73
2021/03/11 06:59:49;;;;;;;;;;;;;;;2.26;100.00;99485.03;5052104;28;19920;-73
2021/03/11 07:02:16;;;;;;;;;;;;;;;2.26;100.00;99496.63;5051529;28;20382;-72
2021/03/11 07:04:42;;;;;;;;;;;;;;;2.25;100.00;99480.66;5069901;28;19935;-72
2021/03/11 07:07:15;;;;;;;;;;;;;;;2.26;100.00;99495.75;5067318;28;20023;-73
2021/03/11 07:09:41;;;;;;;;;;;;;;;2.25;100.00;99480.66;5071494;28;19932;-72
2021/03/11 07:12:07;;;;;;;;;;;;;;;2.25;100.00;99486.03;5074172;28;19925;-72
2021/03/11 07:14:33;;;;;;;;;;;;;;;2.24;100.00;99476.25;5071385;28;19993;-72
2021/03/11 07:17:16;;;;;;;;;;;;;;;2.24;100.00;99476.25;5071305;28;20141;-72
2021/03/11 07:19:42;;;;;;;;;;;;;;;2.21;100.00;99471.97;5071699;28;19928;-72
2021/03/11 07:22:16;;;;;;;;;;;;;;;2.23;100.00;99471.88;5072914;28;20437;-73
2021/03/11 07:24:41;;;;;;;;;;;;;;;2.21;100.00;99471.13;5072173;28;19927;-73
2021/03/11 07:27:08;;;;;;;;;;;;;;;2.23;100.00;99474.53;5073845;28;20015;-73
2021/03/11 07:29:33;;;;;;;;;;;;;;;2.25;100.00;99472.63;5070622;28;20310;-73
2021/03/11 07:32:00;;;;;;;;;;;;;;;2.23;100.00;99456.69;5071314;28;20218;-73
2021/03/11 07:34:27;;;;;;;;;;;;;;;2.24;100.00;99446.81;5070887;28;19924;-73
2021/03/11 07:36:56;;;;;;;;;;;;;;;2.24;100.00;99428.06;5089552;28;19973;-71
2021/03/11 07:39:24;;;;;;;;;;;;;;;2.26;100.00;99448.44;5076307;28;20301;-71
2021/03/11 07:41:49;;;;;;;;;;;;;;;2.28;100.00;99440.28;5071046;28;20149;-72
2021/03/11 07:44:15;;;;;;;;;;;;;;;2.27;100.00;99433.22;5070030;28;20027;-73
2021/03/11 07:46:41;;;;;;;;;;;;;;;2.29;100.00;99444.69;5070933;28;19921;-73
2021/03/11 07:49:08;;;;;;;;;;;;;;;2.33;100.00;99440.84;5074322;28;19921;-73
2021/03/11 07:51:33;;;;;;;;;;;;;;;2.36;100.00;99448.66;5074820;28;20003;-73
2021/03/11 07:54:00;;;;;;;;;;;;;;;2.38;100.00;99433.34;5070434;28;20025;-72
2021/03/11 07:56:26;;;;;;;;;;;;;;;2.41;100.00;99446.53;5081991;28;19963;-72
2021/03/11 07:58:52;;;;;;;;;;;;;;;2.42;100.00;99442.03;5071442;28;19920;-74
2021/03/11 08:01:18;;;;;;;;;;;;;;;2.42;100.00;99404.53;5071824;28;19925;-73
2021/03/11 08:03:45;;;;;;;;;;;;;;;2.43;100.00;99423.19;5070160;28;19994;-73
2021/03/11 08:06:21;;;;;;;;;;;;;;;2.49;100.00;99421.91;5070475;28;19924;-74
2021/03/11 08:08:47;;;;;;;;;;;;;;;2.51;100.00;99425.31;5071592;28;20355;-73
2021/03/11 08:11:30;;;;;;;;;;;;;;;2.51;100.00;99415.47;5056928;28;19931;-74
2021/03/11 08:14:15;;;;;;;;;;;;;;;2.54;100.00;99406.38;5081231;28;19927;-73
2021/03/11 08:16:40;;;;;;;;;;;;;;;2.58;100.00;99393.59;5075429;28;20042;-73
2021/03/11 08:19:06;;;;;;;;;;;;;;;2.61;100.00;99394.25;5070662;28;19920;-73
2021/03/11 08:21:43;;;;;;;;;;;;;;;2.63;100.00;99389.66;5070859;28;19974;-73
2021/03/11 08:24:28;;;;;;;;;;;;;;;2.65;100.00;99389.56;5087039;28;20274;-73
2021/03/11 08:26:54;;;;;;;;;;;;;;;2.71;100.00;99382.91;5071856;28;20356;-73
2021/03/11 08:29:33;;;;;;;;;;;;;;;2.73;100.00;99392.56;5070288;28;19926;-72
2021/03/11 08:31:59;;;;;;;;;;;;;;;2.78;100.00;99384.19;5071903;28;19924;-72
2021/03/11 08:34:35;;;;;;;;;;;;;;;2.81;100.00;99386.66;5081640;28;20031;-73
2021/03/11 08:37:15;;;;;;;;;;;;;;;2.81;100.00;99390.19;5078766;28;20405;-73
2021/03/11 08:39:41;;;;;;;;;;;;;;;2.82;100.00;99374.97;5082313;28;19924;-73
2021/03/11 08:42:26;;;;;;;;;;;;;;;2.84;100.00;99378.41;5072317;28;19927;-73
2021/03/11 08:44:52;;;;;;;;;;;;;;;2.85;100.00;99364.88;5070648;28;19928;-73
2021/03/11 08:47:18;;;;;;;;;;;;;;;2.90;100.00;99367.25;5071342;28;19963;-73
2021/03/11 08:49:44;;;;;;;;;;;;;;;2.96;100.00;99357.91;5070377;28;19978;-73
2021/03/11 08:52:38;;;;;;;;;;;;;;;2.99;100.00;99352.31;5077423;28;19920;-73
2021/03/11 08:55:23;;;;;;;;;;;;;;;3.06;100.00;99350.06;5073924;28;19924;-73
2021/03/11 08:57:49;;;;;;;;;;;;;;;3.12;100.00;99355.81;5050355;28;19921;-73
2021/03/11 09:00:15;;;;;;;;;;;;;;;3.14;100.00;99348.53;5062445;28;19943;-73
2021/03/11 09:02:41;;;;;;;;;;;;;;;3.16;100.00;99349.28;5070311;28;19928;-73
2021/03/11 09:05:08;;;;;;;;;;;;;;;3.21;100.00;99338.22;5069721;28;19920;-73
2021/03/11 09:07:35;;;;;;;;;;;;;;;3.20;100.00;99314.22;5051997;28;19970;-73
2021/03/11 09:10:03;;;;;;;;;;;;;;;3.23;100.00;99330.06;5069419;28;19924;-73
2021/03/11 09:12:33;;;;;;;;;;;;;;;3.25;100.00;99325.47;5075164;28;19920;-74
2021/03/11 09:14:59;;;;;;;;;;;;;;;3.31;100.00;99333.91;5090538;28;20258;-73
2021/03/11 09:17:28;;;;;;;;;;;;;;;3.31;100.00;99330.34;5089176;28;19921;-73
2021/03/11 09:19:55;;;;;;;;;;;;;;;3.32;100.00;99330.25;5073796;28;19987;-73
2021/03/11 09:22:25;;;;;;;;;;;;;;;3.32;100.00;99332.06;5085457;28;19928;-73
2021/03/11 09:25:09;;;;;;;;;;;;;;;3.35;100.00;99337.22;5089497;28;19924;-73
2021/03/11 09:27:36;;;;;;;;;;;;;;;3.35;100.00;99334.53;5085555;28;19920;-73
2021/03/11 09:30:05;;;;;;;;;;;;;;;3.38;100.00;99322.72;5074782;28;19924;-73
2021/03/11 09:32:33;;;;;;;;;;;;;;;3.39;100.00;99327.97;5087481;28;19920;-73
2021/03/11 09:35:00;;;;;;;;;;;;;;;3.41;100.00;99318.00;5065562;28;20298;-73
2021/03/11 09:37:44;;;;;;;;;;;;;;;3.46;100.00;99314.94;5055352;28;19927;-73
2021/03/11 09:40:10;;;;;;;;;;;;;;;3.47;100.00;99319.34;5073273;28;19921;-73
2021/03/11 09:42:37;;;;;;;;;;;;;;;3.47;100.00;99312.16;5084496;28;19927;-73
2021/03/11 09:45:03;;;;;;;;;;;;;;;3.49;100.00;99296.81;5091960;28;19924;-73
2021/03/11 09:47:29;;;;;;;;;;;;;;;3.52;100.00;99299.25;5091452;28;19954;-73
2021/03/11 09:50:04;;;;;;;;;;;;;;;3.56;100.00;99293.69;5090357;28;19945;-73
2021/03/11 09:52:30;;;;;;;;;;;;;;;3.59;100.00;99283.56;5061417;28;19924;-73
2021/03/11 09:54:59;;;;;;;;;;;;;;;3.64;100.00;99280.53;5072936;28;19943;-74
2021/03/11 09:57:27;;;;;;;;;;;;;;;3.67;100.00;99282.97;5080726;28;19924;-73
2021/03/11 09:59:53;;;;;;;;;;;;;;;3.76;100.00;99273.38;5093210;28;20018;-74
2021/03/11 10:02:19;;;;;;;;;;;;;;;3.84;100.00;99282.56;5078546;28;20472;-74
2021/03/11 10:04:45;;;;;;;;;;;;;;;3.86;100.00;99285.13;5072988;28;19920;-74
2021/03/11 10:07:14;;;;;;;;;;;;;;;3.87;100.00;99288.69;5073060;28;19924;-73
2021/03/11 10:09:41;;;;;;;;;;;;;;;3.89;100.00;99262.53;5073007;28;20336;-74
2021/03/11 10:12:07;;;;;;;;;;;;;;;3.95;100.00;99260.25;5073650;28;20015;-75
2021/03/11 10:14:33;;;;;;;;;;;;;;;3.99;100.00;99268.94;5073040;28;19927;-71
2021/03/11 10:16:59;;;;;;;;;;;;;;;3.99;100.00;99253.66;5072426;28;19924;-74
2021/03/11 10:19:30;;;;;;;;;;;;;;;4.04;100.00;99249.78;5072222;28;19924;-74
2021/03/11 10:21:58;;;;;;;;;;;;;;;4.08;100.00;99253.94;5082519;28;19919;-73
2021/03/11 10:24:32;;;;;;;;;;;;;;;4.11;100.00;99248.34;5091047;28;20421;-73
2021/03/11 10:26:57;;;;;;;;;;;;;;;4.16;100.00;99238.09;5092489;28;19994;-72
2021/03/11 10:29:26;;;;;;;;;;;;;;;4.18;100.00;99253.13;5072689;28;19920;-73
2021/03/11 10:31:55;;;;;;;;;;;;;;;4.22;100.00;99240.28;5072678;28;19920;-74
2021/03/11 10:34:21;;;;;;;;;;;;;;;4.26;100.00;99244.47;5072169;28;20357;-72
2021/03/11 10:36:54;;;;;;;;;;;;;;;4.31;100.00;99236.88;5079302;28;19926;-72
2021/03/11 10:39:20;;;;;;;;;;;;;;;4.42;100.00;99227.09;5083778;28;20381;-72
2021/03/11 10:41:57;;;;;;;;;;;;;;;4.51;100.00;99221.84;5091754;28;19919;-72
2021/03/11 10:44:23;;;;;;;;;;;;;;;4.51;100.00;99216.47;5072455;28;19924;-72
2021/03/11 10:46:49;;;;;;;;;;;;;;;4.53;100.00;99219.91;5073385;28;19966;-71
2021/03/11 10:49:15;;;;;;;;;;;;;;;4.60;100.00;99211.34;5076334;28;19931;-71
2021/03/11 10:51:42;;;;;;;;;;;;;;;4.66;100.00;99214.41;5072166;28;19924;-71
2021/03/11 10:54:07;;;;;;;;;;;;;;;4.77;100.00;99207.28;5071708;28;19920;-72
2021/03/11 10:56:33;;;;;;;;;;;;;;;4.95;100.00;99186.13;5079843;28;19920;-72
2021/03/11 10:59:01;;;;;;;;;;;;;;;5.07;100.00;99190.47;5091848;28;19963;-71
2021/03/11 11:01:28;;;;;;;;;;;;;;;5.35;100.00;99172.03;5084915;28;19924;-73
2021/03/11 11:03:54;;;;;;;;;;;;;;;5.72;100.00;99176.13;5072045;28;20366;-72
2021/03/11 11:06:20;;;;;;;;;;;;;;;6.23;100.00;99161.84;5076415;28;19924;-72
2021/03/11 11:08:47;;;;;;;;;;;;;;;6.68;100.00;99152.47;5084318;28;20309;-73
2021/03/11 11:11:13;;;;;;;;;;;;;;;6.87;100.00;99144.44;5075113;28;19923;-72
2021/03/11 11:13:39;;;;;;;;;;;;;;;7.30;100.00;99145.03;5077274;28;19921;-73
2021/03/11 11:16:07;;;;;;;;;;;;;;;7.52;100.00;99141.19;5071334;28;20428;-74
2021/03/11 11:18:33;;;;;;;;;;;;;;;7.77;100.00;99119.97;5084446;28;20031;-73
2021/03/11 11:20:59;;;;;;;;;;;;;;;7.52;100.00;99111.50;5075424;28;19924;-73
2021/03/11 11:23:25;;;;;;;;;;;;;;;7.22;100.00;99074.72;5082775;28;19927;-73
2021/03/11 11:25:51;;;;;;;;;;;;;;;7.02;100.00;99077.44;5090123;28;20010;-73
2021/03/11 11:28:16;;;;;;;;;;;;;;;6.92;100.00;99087.38;5055466;28;19920;-72
2021/03/11 11:30:42;;;;;;;;;;;;;;;6.93;100.00;99085.53;5057939;28;19920;-72
2021/03/11 11:33:09;;;;;;;30.83;20.23;;;;;;;7.23;100.00;99062.94;5069540;28;20436;-72
2021/03/11 11:35:36;;;;;;;30.88;21.83;;;;;;;7.60;100.00;99086.44;5078844;28;20461;-73
2021/03/11 11:38:02;;;;;;;30.80;21.85;;;;;;;7.85;100.00;99057.09;5078750;28;20509;-73
2021/03/11 11:40:30;;;;;;;31.33;20.98;;;;;;;7.94;100.00;99049.97;5089528;28;20834;-73
2021/03/11 11:42:56;;;;;;;;;;;;;;;7.54;100.00;99043.84;5081431;28;20416;-72
2021/03/11 11:45:22;;;;;;;27.75;19.88;;;;;;;7.85;100.00;99013.88;5066463;28;20935;-71
2021/03/11 11:47:48;;;;;;;25.92;18.67;;;;;;;8.16;100.00;98990.13;5089693;28;20432;-70
2021/03/11 11:50:15;;;;;;;26.45;18.48;;;;;;;9.14;100.00;98965.00;5069415;28;20416;-71
2021/03/11 11:52:42;;;;;;;27.20;18.60;;;;;;;9.88;100.00;98969.97;5069229;28;20415;-70
2021/03/11 11:55:10;;;;;;;23.58;17.48;;;;;;;10.27;100.00;98945.00;5068731;28;20466;-71
2021/03/11 11:57:36;;;;;;;22.37;15.33;;;;;;;9.99;100.00;98947.16;5069125;28;20526;-73
2021/03/11 12:00:04;;;;;;;20.83;15.98;;;;;;;10.49;100.00;98949.00;5068602;28;21296;-71
2021/03/11 12:02:30;;;;;;;19.90;15.00;;;;;;;10.65;100.00;98947.31;5071537;28;20818;-71
2021/03/11 12:04:56;;;;;;;;;;;;;;;10.23;100.00;98959.91;5070391;28;20429;-71
2021/03/11 12:07:23;;;;;;;;;;;;;;;10.51;100.00;98962.38;5074220;28;19935;-70
2021/03/11 12:09:49;;;;;;;;;;;;;;;10.43;100.00;98970.53;5090511;28;20025;-70
2021/03/11 12:12:14;;;;;;;;;;;;;;;10.32;100.00;98958.09;5070215;28;19924;-70
2021/03/11 12:14:42;;;;;;;;;;;;;;;10.22;100.00;98950.09;5084806;28;19927;-71
2021/03/11 12:17:08;;;;;;;;;;;;;;;10.45;100.00;98939.50;5080273;28;19938;-71
2021/03/11 12:19:33;;;;;;;;;;;;;;;10.05;100.00;98943.78;5077615;28;20013;-71
2021/03/11 12:21:59;;;;;;;;;;;;;;;9.75;100.00;98918.09;5070545;28;19920;-71
2021/03/11 12:24:26;;;;;;;;;;;;;;;9.82;100.00;98922.72;5070825;28;20003;-71
2021/03/11 12:26:52;;;;;;;;;;;;;;;10.09;100.00;98918.03;5070639;28;19924;-71
2021/03/11 12:29:18;;;;;;;;;;;;;;;10.35;100.00;98927.94;5084326;28;19943;-70
2021/03/11 12:31:44;;;;;;;;;;;;;;;10.54;100.00;98900.50;5090872;28;19920;-71
2021/03/11 12:34:10;;;;;;;;;;;;;;;10.72;100.00;98894.91;5078357;28;19989;-71
2021/03/11 12:36:36;;;;;;;;;;;;;;;10.63;100.00;98890.50;5070380;28;19924;-71